Strona główna
METAR-TAF:

METAR-TAF

Lotnisko :

Port lotniczy Wyspy Kokosowe

Wyspy Kokosowe, Australia

Szerokość geograficzna: 12-11S, Długość geograficzna: 096-49E, wysokość: 3 m

Aktualna obserwacja pogody

Raport powstał 26 minut temu, godzina 05:00 UTC
Wiatr 12 kt od południowy wschód
Temperatura 29°C
Wilgotność 70%
Ciśnienie 1012 hPa
Widzialność 10 km lub więcej

METAR: YPCC 070500Z AUTO 14012KT 9999 // NCD 29/23 Q1012

czas: 11:56 (05:26 UTC)

Prognoza

Raport powstał 6 godziny i 23 minut temu, godzina 23:03 UTC
Prognoza ważna od 07 godzina 00 UTC do 08 godzina 00 UTC
Wiatr 12 kt od południowy wschód
Widzialność 10 km lub więcej
Rozproszone chmury na wysokości 2500 ft
Od 07 godzina 1200 UTC
Wiatr 10 kt od południowy wschód
Widzialność 10 km lub więcej
Rozproszone chmury na wysokości 1800 ft
Przerywane chmury na wysokości 3000 ft

TAF: YPCC 062303Z 0700/0800 13012KT 9999 SCT025 FM071200 13010KT 9999 SCT018 BKN030

Obserwacja i prognoza pogody dla ponad 4000 lotnisk (raport METAR i TAF).

Dostępne stacje oznaczono żółtymi i czerwonymi punktami na mapie.

Najedź kursorem aby zobaczyć nazwę stacji.

Kliknij aby zobaczyć obserwacje i prognozy pogody.

Aby zmienić mapę: kliknij na zielony przycisk z czarnym krzyżykiem, aby powiększyć; na zielony przycisk z myślnikiem, aby pomniejszyć; na zielone strzałki, aby przejść do map sąsiednich.


METAR-TAF: